BAW2309 EGCC-EGLL
Flight info
| Callsign | BAW2309 |
|---|---|
| Flight time | 0h 39m |
| Altitude | 17000 |
| Route | SANBA N859 HON |
| Aircraft | B763/H-SDE3FGHIM3RWXY/LB1 |
Departure
| Time | 2026-05-04 21:00 |
|---|---|
| Airport | Manchester Airport (EGCC) |
Arrival
| Time | 2026-05-04 21:39 |
|---|---|
| Airport | London Heathrow Airport (EGLL) |
| Time | Latitude | Longitude | Altitude | Speed | Heading |
|---|---|---|---|---|---|
| 2026-05-04 20:33 | 53.36489 | -2.27836 | 235 ft | 0 kts | 44° |
| 2026-05-04 20:43 | 53.36485 | -2.27843 | 234 ft | 2 kts | 44° |
| 2026-05-04 20:43 | 53.36474 | -2.27861 | 234 ft | 2 kts | 44° |
| 2026-05-04 20:44 | 53.36463 | -2.27878 | 234 ft | 2 kts | 44° |
| 2026-05-04 20:44 | 53.36452 | -2.27895 | 234 ft | 2 kts | 47° |
| 2026-05-04 20:44 | 53.36444 | -2.27916 | 234 ft | 2 kts | 75° |
| 2026-05-04 20:44 | 53.36443 | -2.27940 | 234 ft | 2 kts | 98° |
| 2026-05-04 20:45 | 53.36447 | -2.27963 | 234 ft | 2 kts | 121° |
| 2026-05-04 20:45 | 53.36453 | -2.27976 | 234 ft | 1 kts | 136° |
| 2026-05-04 20:45 | 53.36454 | -2.27978 | 234 ft | 0 kts | 135° |
| 2026-05-04 20:51 | 53.36439 | -2.27953 | 234 ft | 7 kts | 135° |
| 2026-05-04 20:51 | 53.36404 | -2.27900 | 234 ft | 3 kts | 162° |
| 2026-05-04 20:51 | 53.36377 | -2.27921 | 234 ft | 9 kts | 207° |
| 2026-05-04 20:52 | 53.36286 | -2.27966 | 234 ft | 17 kts | 200° |
| 2026-05-04 20:52 | 53.36189 | -2.27988 | 234 ft | 1 kts | 166° |
| 2026-05-04 20:52 | 53.36148 | -2.27970 | 234 ft | 10 kts | 165° |
| 2026-05-04 20:52 | 53.36039 | -2.27908 | 234 ft | 21 kts | 151° |
| 2026-05-04 20:53 | 53.35912 | -2.27852 | 234 ft | 13 kts | 184° |
| 2026-05-04 20:53 | 53.35855 | -2.27804 | 234 ft | 7 kts | 136° |
| 2026-05-04 20:53 | 53.35820 | -2.27741 | 234 ft | 7 kts | 132° |
| 2026-05-04 20:53 | 53.35783 | -2.27686 | 234 ft | 8 kts | 147° |
| 2026-05-04 20:54 | 53.35697 | -2.27619 | 234 ft | 17 kts | 162° |
| 2026-05-04 20:54 | 53.35623 | -2.27490 | 234 ft | 8 kts | 79° |
| 2026-05-04 20:54 | 53.35644 | -2.27410 | 234 ft | 6 kts | 54° |
| 2026-05-04 20:54 | 53.35673 | -2.27345 | 234 ft | 8 kts | 52° |
| 2026-05-04 20:55 | 53.35728 | -2.27231 | 234 ft | 18 kts | 51° |
| 2026-05-04 20:55 | 53.35823 | -2.27023 | 234 ft | 26 kts | 59° |
| 2026-05-04 20:55 | 53.35938 | -2.26746 | 234 ft | 29 kts | 53° |
| 2026-05-04 20:55 | 53.36063 | -2.26483 | 234 ft | 28 kts | 54° |
| 2026-05-04 20:56 | 53.36168 | -2.26282 | 234 ft | 17 kts | 38° |
| 2026-05-04 20:56 | 53.36249 | -2.26141 | 234 ft | 16 kts | 52° |
| 2026-05-04 20:56 | 53.36266 | -2.26076 | 234 ft | 0 kts | 83° |
| 2026-05-04 20:58 | 53.36272 | -2.25990 | 234 ft | 14 kts | 83° |
| 2026-05-04 20:58 | 53.36271 | -2.25814 | 234 ft | 13 kts | 126° |
| 2026-05-04 20:58 | 53.36230 | -2.25774 | 234 ft | 4 kts | 164° |
| 2026-05-04 20:58 | 53.36198 | -2.25790 | 234 ft | 6 kts | 227° |
| 2026-05-04 20:59 | 53.36165 | -2.25857 | 234 ft | 7 kts | 231° |
| 2026-05-04 20:59 | 53.36074 | -2.26040 | 234 ft | 48 kts | 231° |
| 2026-05-04 20:59 | 53.35686 | -2.26846 | 234 ft | 128 kts | 231° |
| 2026-05-04 20:59 | 53.34975 | -2.28306 | 418 ft | 187 kts | 234° |
| 2026-05-04 21:00 | 53.34183 | -2.29957 | 1641 ft | 181 kts | 234° |
| 2026-05-04 21:00 | 53.33409 | -2.31472 | 2440 ft | 185 kts | 227° |
| 2026-05-04 21:00 | 53.32177 | -2.32517 | 2797 ft | 218 kts | 187° |
| 2026-05-04 21:00 | 53.30588 | -2.32099 | 3233 ft | 250 kts | 152° |
| 2026-05-04 21:01 | 53.29021 | -2.30604 | 4013 ft | 269 kts | 149° |
| 2026-05-04 21:01 | 53.27409 | -2.29010 | 4982 ft | 281 kts | 151° |
| 2026-05-04 21:01 | 53.25528 | -2.27868 | 5022 ft | 292 kts | 175° |
| 2026-05-04 21:01 | 53.23590 | -2.28200 | 5024 ft | 275 kts | 203° |
| 2026-05-04 21:02 | 53.21926 | -2.29653 | 5024 ft | 268 kts | 208° |
| 2026-05-04 21:02 | 53.20186 | -2.30837 | 5024 ft | 272 kts | 199° |
| 2026-05-04 21:02 | 53.18359 | -2.31714 | 5007 ft | 274 kts | 195° |
| 2026-05-04 21:02 | 53.16501 | -2.32445 | 5010 ft | 273 kts | 193° |
| 2026-05-04 21:03 | 53.14628 | -2.32938 | 5005 ft | 275 kts | 179° |
| 2026-05-04 21:03 | 53.12765 | -2.32146 | 5327 ft | 285 kts | 154° |
| 2026-05-04 21:03 | 53.11010 | -2.30691 | 6635 ft | 282 kts | 155° |
| 2026-05-04 21:03 | 53.09270 | -2.29263 | 7752 ft | 286 kts | 154° |
| 2026-05-04 21:04 | 53.07503 | -2.27764 | 8827 ft | 291 kts | 153° |
| 2026-05-04 21:04 | 53.05701 | -2.26218 | 9863 ft | 295 kts | 153° |
| 2026-05-04 21:04 | 53.03894 | -2.24657 | 10687 ft | 307 kts | 153° |
| 2026-05-04 21:04 | 53.01891 | -2.22924 | 11010 ft | 338 kts | 153° |
| 2026-05-04 21:05 | 52.99728 | -2.21050 | 11318 ft | 368 kts | 153° |
| 2026-05-04 21:05 | 52.97397 | -2.19030 | 12036 ft | 385 kts | 153° |
| 2026-05-04 21:05 | 52.95034 | -2.16983 | 13187 ft | 388 kts | 153° |
| 2026-05-04 21:05 | 52.92644 | -2.14915 | 14202 ft | 393 kts | 153° |
| 2026-05-04 21:06 | 52.90234 | -2.12834 | 15215 ft | 398 kts | 153° |
| 2026-05-04 21:06 | 52.87778 | -2.10715 | 16171 ft | 402 kts | 153° |
| 2026-05-04 21:06 | 52.85279 | -2.08562 | 16995 ft | 408 kts | 153° |
| 2026-05-04 21:06 | 52.82693 | -2.06339 | 17054 ft | 431 kts | 153° |
| 2026-05-04 21:07 | 52.80011 | -2.04033 | 17046 ft | 436 kts | 153° |
| 2026-05-04 21:07 | 52.77346 | -2.01745 | 17035 ft | 432 kts | 153° |
| 2026-05-04 21:07 | 52.74694 | -1.99471 | 17041 ft | 431 kts | 153° |
| 2026-05-04 21:07 | 52.72039 | -1.97199 | 17044 ft | 433 kts | 153° |
| 2026-05-04 21:08 | 52.69380 | -1.94927 | 17038 ft | 433 kts | 153° |
| 2026-05-04 21:08 | 52.66714 | -1.92651 | 17033 ft | 432 kts | 153° |
| 2026-05-04 21:08 | 52.64053 | -1.90382 | 17041 ft | 432 kts | 153° |
| 2026-05-04 21:08 | 52.61377 | -1.88105 | 17049 ft | 433 kts | 153° |
| 2026-05-04 21:09 | 52.58731 | -1.85856 | 17047 ft | 433 kts | 153° |
| 2026-05-04 21:09 | 52.56163 | -1.83677 | 17037 ft | 432 kts | 153° |
| 2026-05-04 21:09 | 52.53474 | -1.81396 | 17040 ft | 432 kts | 153° |
| 2026-05-04 21:09 | 52.50809 | -1.79141 | 17048 ft | 433 kts | 153° |
| 2026-05-04 21:10 | 52.48112 | -1.76861 | 17047 ft | 433 kts | 153° |
| 2026-05-04 21:10 | 52.45457 | -1.74619 | 17047 ft | 432 kts | 153° |
| 2026-05-04 21:10 | 52.42778 | -1.72361 | 17048 ft | 432 kts | 153° |
| 2026-05-04 21:10 | 52.40102 | -1.70108 | 17048 ft | 432 kts | 153° |
| 2026-05-04 21:11 | 52.37432 | -1.67854 | 17047 ft | 432 kts | 152° |
| 2026-05-04 21:11 | 52.34925 | -1.65276 | 17061 ft | 433 kts | 143° |
| 2026-05-04 21:11 | 52.32615 | -1.62036 | 17051 ft | 434 kts | 139° |
| 2026-05-04 21:11 | 52.30347 | -1.58847 | 17045 ft | 434 kts | 140° |
| 2026-05-04 21:12 | 52.28055 | -1.55614 | 17039 ft | 433 kts | 140° |
| 2026-05-04 21:12 | 52.25788 | -1.52440 | 17063 ft | 434 kts | 140° |
| 2026-05-04 21:12 | 52.23512 | -1.49238 | 17045 ft | 434 kts | 140° |
| 2026-05-04 21:12 | 52.21225 | -1.46032 | 17047 ft | 430 kts | 140° |
| 2026-05-04 21:13 | 52.18995 | -1.42911 | 17031 ft | 415 kts | 140° |
| 2026-05-04 21:13 | 52.16850 | -1.39913 | 17035 ft | 402 kts | 140° |
| 2026-05-04 21:13 | 52.14787 | -1.37034 | 17048 ft | 404 kts | 140° |
| 2026-05-04 21:13 | 52.12661 | -1.34071 | 17044 ft | 410 kts | 140° |
| 2026-05-04 21:14 | 52.10490 | -1.31049 | 17046 ft | 409 kts | 140° |
| 2026-05-04 21:14 | 52.08339 | -1.28059 | 17036 ft | 407 kts | 140° |
| 2026-05-04 21:14 | 52.06211 | -1.25103 | 17033 ft | 400 kts | 140° |
| 2026-05-04 21:14 | 52.04132 | -1.22219 | 17025 ft | 389 kts | 140° |
| 2026-05-04 21:15 | 52.02086 | -1.19387 | 17044 ft | 387 kts | 140° |
| 2026-05-04 21:15 | 52.00038 | -1.16554 | 17035 ft | 390 kts | 140° |
| 2026-05-04 21:15 | 51.97957 | -1.13679 | 17039 ft | 391 kts | 140° |
| 2026-05-04 21:15 | 51.95907 | -1.10859 | 17047 ft | 388 kts | 142° |
| 2026-05-04 21:16 | 51.93663 | -1.08606 | 17043 ft | 369 kts | 160° |
| 2026-05-04 21:16 | 51.91240 | -1.07702 | 17042 ft | 350 kts | 178° |
| 2026-05-04 21:16 | 51.88913 | -1.08009 | 17033 ft | 333 kts | 195° |
| 2026-05-04 21:16 | 51.86811 | -1.09353 | 17042 ft | 317 kts | 211° |
| 2026-05-04 21:17 | 51.85120 | -1.11468 | 17040 ft | 302 kts | 227° |
| 2026-05-04 21:17 | 51.83886 | -1.14133 | 17045 ft | 294 kts | 242° |
| 2026-05-04 21:17 | 51.83125 | -1.17197 | 17069 ft | 300 kts | 256° |
| 2026-05-04 21:17 | 51.82865 | -1.20597 | 17064 ft | 308 kts | 271° |
| 2026-05-04 21:18 | 51.83167 | -1.24000 | 17054 ft | 310 kts | 286° |
| 2026-05-04 21:18 | 51.84018 | -1.27158 | 17056 ft | 308 kts | 302° |
| 2026-05-04 21:18 | 51.85363 | -1.29845 | 17058 ft | 308 kts | 316° |
| 2026-05-04 21:18 | 51.86911 | -1.32209 | 17048 ft | 309 kts | 315° |
| 2026-05-04 21:19 | 51.88493 | -1.34610 | 17042 ft | 309 kts | 316° |
| 2026-05-04 21:19 | 51.90067 | -1.36933 | 17039 ft | 309 kts | 317° |
| 2026-05-04 21:19 | 51.91663 | -1.39261 | 17042 ft | 309 kts | 317° |
| 2026-05-04 21:19 | 51.93265 | -1.41586 | 17048 ft | 308 kts | 317° |
| 2026-05-04 21:20 | 51.94876 | -1.43847 | 17046 ft | 308 kts | 323° |
| 2026-05-04 21:20 | 51.96750 | -1.45566 | 17064 ft | 309 kts | 339° |
| 2026-05-04 21:20 | 51.98815 | -1.46405 | 17096 ft | 312 kts | 355° |
| 2026-05-04 21:20 | 52.00980 | -1.46320 | 17133 ft | 313 kts | 11° |
| 2026-05-04 21:21 | 52.03057 | -1.45288 | 17162 ft | 314 kts | 26° |
| 2026-05-04 21:21 | 52.04876 | -1.43392 | 17204 ft | 314 kts | 42° |
| 2026-05-04 21:21 | 52.06325 | -1.40735 | 17248 ft | 314 kts | 58° |
| 2026-05-04 21:21 | 52.07271 | -1.37538 | 17295 ft | 314 kts | 75° |
| 2026-05-04 21:22 | 52.07641 | -1.34101 | 17329 ft | 313 kts | 90° |
| 2026-05-04 21:22 | 52.07422 | -1.30597 | 17351 ft | 312 kts | 106° |
| 2026-05-04 21:22 | 52.06622 | -1.27315 | 17376 ft | 310 kts | 122° |
| 2026-05-04 21:22 | 52.05333 | -1.24566 | 17397 ft | 309 kts | 137° |
| 2026-05-04 21:23 | 52.03731 | -1.22254 | 17342 ft | 304 kts | 140° |
| 2026-05-04 21:23 | 52.02150 | -1.19997 | 16953 ft | 306 kts | 139° |
| 2026-05-04 21:23 | 52.00553 | -1.17701 | 16581 ft | 305 kts | 139° |
| 2026-05-04 21:23 | 51.98983 | -1.15443 | 16246 ft | 304 kts | 139° |
| 2026-05-04 21:24 | 51.97401 | -1.13167 | 15883 ft | 303 kts | 139° |
| 2026-05-04 21:24 | 51.95842 | -1.10947 | 15556 ft | 301 kts | 143° |
| 2026-05-04 21:24 | 51.93991 | -1.09382 | 15152 ft | 300 kts | 168° |
| 2026-05-04 21:24 | 51.92001 | -1.08715 | 15048 ft | 289 kts | 159° |
| 2026-05-04 21:25 | 51.90311 | -1.06979 | 15079 ft | 292 kts | 132° |
| 2026-05-04 21:25 | 51.89176 | -1.04224 | 15109 ft | 303 kts | 121° |
| 2026-05-04 21:25 | 51.88002 | -1.01430 | 15069 ft | 291 kts | 130° |
| 2026-05-04 21:25 | 51.86723 | -0.99022 | 14875 ft | 279 kts | 133° |
| 2026-05-04 21:26 | 51.85447 | -0.96691 | 14364 ft | 280 kts | 122° |
| 2026-05-04 21:26 | 51.84544 | -0.93886 | 13854 ft | 280 kts | 115° |
| 2026-05-04 21:26 | 51.83708 | -0.91082 | 13438 ft | 277 kts | 116° |
| 2026-05-04 21:26 | 51.82864 | -0.88309 | 12995 ft | 275 kts | 116° |
| 2026-05-04 21:27 | 51.82026 | -0.85563 | 12558 ft | 274 kts | 116° |
| 2026-05-04 21:27 | 51.81185 | -0.82810 | 12128 ft | 271 kts | 116° |
| 2026-05-04 21:27 | 51.80361 | -0.80119 | 11699 ft | 269 kts | 116° |
| 2026-05-04 21:27 | 51.79534 | -0.77421 | 11259 ft | 268 kts | 116° |
| 2026-05-04 21:28 | 51.78709 | -0.74733 | 10837 ft | 266 kts | 116° |
| 2026-05-04 21:28 | 51.77898 | -0.72096 | 10414 ft | 265 kts | 116° |
| 2026-05-04 21:28 | 51.77077 | -0.69429 | 9984 ft | 263 kts | 116° |
| 2026-05-04 21:28 | 51.76277 | -0.66834 | 9556 ft | 261 kts | 116° |
| 2026-05-04 21:29 | 51.75474 | -0.64232 | 9140 ft | 259 kts | 116° |
| 2026-05-04 21:29 | 51.74667 | -0.61618 | 8741 ft | 257 kts | 115° |
| 2026-05-04 21:29 | 51.73783 | -0.59142 | 8297 ft | 256 kts | 132° |
| 2026-05-04 21:29 | 51.72366 | -0.57521 | 7810 ft | 256 kts | 162° |
| 2026-05-04 21:30 | 51.70611 | -0.57262 | 7370 ft | 254 kts | 193° |
| 2026-05-04 21:30 | 51.68976 | -0.58227 | 6941 ft | 252 kts | 205° |
| 2026-05-04 21:30 | 51.67397 | -0.59434 | 6508 ft | 250 kts | 214° |
| 2026-05-04 21:30 | 51.66098 | -0.61260 | 6058 ft | 249 kts | 228° |
| 2026-05-04 21:31 | 51.63794 | -0.65354 | 5274 ft | 247 kts | 229° |
| 2026-05-04 21:31 | 51.62658 | -0.67388 | 4888 ft | 246 kts | 229° |
| 2026-05-04 21:31 | 51.61531 | -0.69411 | 4511 ft | 244 kts | 229° |
| 2026-05-04 21:32 | 51.60419 | -0.71409 | 4462 ft | 235 kts | 229° |
| 2026-05-04 21:32 | 51.59307 | -0.73406 | 4466 ft | 243 kts | 229° |
| 2026-05-04 21:32 | 51.58181 | -0.75428 | 4459 ft | 246 kts | 229° |
| 2026-05-04 21:32 | 51.57046 | -0.77467 | 4476 ft | 246 kts | 229° |
| 2026-05-04 21:33 | 51.55904 | -0.79518 | 4469 ft | 245 kts | 229° |
| 2026-05-04 21:33 | 51.54775 | -0.81546 | 4451 ft | 244 kts | 229° |
| 2026-05-04 21:33 | 51.53548 | -0.83398 | 4454 ft | 243 kts | 207° |
| 2026-05-04 21:33 | 51.51960 | -0.84092 | 4474 ft | 232 kts | 175° |
| 2026-05-04 21:34 | 51.50447 | -0.83389 | 4068 ft | 229 kts | 142° |
| 2026-05-04 21:34 | 51.49407 | -0.81529 | 3677 ft | 224 kts | 118° |
| 2026-05-04 21:34 | 51.48619 | -0.79409 | 3334 ft | 222 kts | 119° |
| 2026-05-04 21:34 | 51.47817 | -0.77363 | 3264 ft | 204 kts | 114° |
| 2026-05-04 21:35 | 51.47534 | -0.75282 | 3151 ft | 187 kts | 84° |
| 2026-05-04 21:35 | 51.47602 | -0.73234 | 2980 ft | 176 kts | 86° |
| 2026-05-04 21:35 | 51.47623 | -0.71376 | 2870 ft | 159 kts | 86° |
| 2026-05-04 21:35 | 51.47642 | -0.69702 | 2732 ft | 143 kts | 85° |
| 2026-05-04 21:36 | 51.47659 | -0.68097 | 2549 ft | 148 kts | 85° |
| 2026-05-04 21:36 | 51.47674 | -0.66417 | 2365 ft | 152 kts | 85° |
| 2026-05-04 21:36 | 51.47684 | -0.64731 | 2147 ft | 150 kts | 85° |
| 2026-05-04 21:36 | 51.47693 | -0.63048 | 1924 ft | 148 kts | 85° |
| 2026-05-04 21:37 | 51.47701 | -0.61424 | 1718 ft | 147 kts | 85° |
| 2026-05-04 21:37 | 51.47709 | -0.59789 | 1509 ft | 148 kts | 85° |
| 2026-05-04 21:37 | 51.47716 | -0.58399 | 1340 ft | 149 kts | 85° |
| 2026-05-04 21:37 | 51.47724 | -0.56742 | 1133 ft | 149 kts | 85° |
| 2026-05-04 21:38 | 51.47732 | -0.55059 | 931 ft | 149 kts | 87° |
| 2026-05-04 21:38 | 51.47739 | -0.53383 | 717 ft | 158 kts | 86° |
| 2026-05-04 21:38 | 51.47751 | -0.51663 | 540 ft | 154 kts | 88° |
| 2026-05-04 21:38 | 51.47745 | -0.49943 | 324 ft | 156 kts | 86° |
| 2026-05-04 21:39 | 51.47747 | -0.48218 | 113 ft | 150 kts | 87° |
| 2026-05-04 21:39 | 51.47757 | -0.46709 | 91 ft | 103 kts | 90° |
| 2026-05-04 21:39 | 51.47758 | -0.45946 | 91 ft | 47 kts | 89° |
| 2026-05-04 21:39 | 51.47740 | -0.45521 | 90 ft | 23 kts | 129° |
| 2026-05-04 21:40 | 51.47619 | -0.45468 | 90 ft | 11 kts | 178° |
| 2026-05-04 21:40 | 51.47609 | -0.45467 | 90 ft | 0 kts | 177° |
| 2026-05-04 21:42 | 51.47596 | -0.45486 | 90 ft | 5 kts | 248° |
| 2026-05-04 21:42 | 51.47597 | -0.45557 | 90 ft | 6 kts | 269° |
| 2026-05-04 21:42 | 51.47596 | -0.45665 | 90 ft | 14 kts | 269° |
| 2026-05-04 21:43 | 51.47595 | -0.45857 | 90 ft | 18 kts | 269° |
| 2026-05-04 21:43 | 51.47595 | -0.46056 | 90 ft | 17 kts | 269° |
| 2026-05-04 21:43 | 51.47592 | -0.46249 | 91 ft | 17 kts | 269° |
| 2026-05-04 21:43 | 51.47591 | -0.46466 | 91 ft | 20 kts | 269° |
| 2026-05-04 21:44 | 51.47591 | -0.46714 | 91 ft | 19 kts | 270° |
| 2026-05-04 21:44 | 51.47588 | -0.46828 | 91 ft | 11 kts | 264° |
| 2026-05-04 21:44 | 51.47581 | -0.46954 | 90 ft | 0 kts | 268° |
| 2026-05-04 21:45 | 51.47581 | -0.46977 | 90 ft | 9 kts | 268° |
| 2026-05-04 21:46 | 51.47573 | -0.47196 | 91 ft | 28 kts | 266° |
| 2026-05-04 21:46 | 51.47580 | -0.47492 | 91 ft | 16 kts | 268° |
| 2026-05-04 21:46 | 51.47578 | -0.47675 | 91 ft | 16 kts | 269° |
| 2026-05-04 21:46 | 51.47578 | -0.47851 | 91 ft | 15 kts | 269° |
| 2026-05-04 21:47 | 51.47578 | -0.48025 | 91 ft | 15 kts | 270° |
| 2026-05-04 21:47 | 51.47579 | -0.48189 | 91 ft | 14 kts | 269° |
| 2026-05-04 21:47 | 51.47563 | -0.48338 | 91 ft | 12 kts | 226° |
| 2026-05-04 21:47 | 51.47485 | -0.48359 | 90 ft | 11 kts | 179° |
| 2026-05-04 21:48 | 51.47405 | -0.48358 | 90 ft | 11 kts | 180° |
| 2026-05-04 21:48 | 51.47333 | -0.48359 | 90 ft | 10 kts | 180° |
| 2026-05-04 21:48 | 51.47286 | -0.48359 | 90 ft | 3 kts | 180° |
| 2026-05-04 21:48 | 51.47266 | -0.48359 | 90 ft | 1 kts | 178° |
| 2026-05-04 21:49 | 51.47254 | -0.48356 | 90 ft | 0 kts | 156° |
| 2026-05-04 21:49 | 51.47252 | -0.48353 | 90 ft | 0 kts | 144° |
| 2026-05-04 21:49 | 51.47247 | -0.48336 | 90 ft | 1 kts | 96° |
| 2026-05-04 21:49 | 51.47247 | -0.48332 | 90 ft | 1 kts | 92° |
| 2026-05-04 21:50 | 51.47247 | -0.48270 | 90 ft | 3 kts | 90° |
| 2026-05-04 21:50 | 51.47247 | -0.48244 | 90 ft | 3 kts | 89° |
| 2026-05-04 21:50 | 51.47247 | -0.48230 | 90 ft | 0 kts | 89° |
| 2026-05-04 21:50 | 51.47247 | -0.48229 | 90 ft | 0 kts | 89° |